Time;durP1;ratioP1;P1;durP2;ratioP2;P2;SDS_P1;SDS_P2;PMS_P1;PMS_P2;Temp;Humidity;BMP_temperature;BMP_pressure;BME280_temperature;BME280_humidity;BME280_pressure;Samples;Min_cycle;Max_cycle;Signal;HPM_P1;HPM_P2
2022/04/20 00:00:34;;;;;;;8.35;3.58;;;;;;;0.72;100.00;101616.28;4986801;28;20030;-84
2022/04/20 00:03:00;;;;;;;6.03;3.25;;;;;;;0.89;100.00;101636.44;4966568;28;20406;-82
2022/04/20 00:05:25;;;;;;;9.43;3.75;;;;;;;0.76;100.00;101627.53;4980931;28;20033;-84
2022/04/20 00:07:51;;;;;;;8.85;3.83;;;;;;;0.61;100.00;101626.66;5000873;28;20502;-85
2022/04/20 00:10:29;;;;;;;7.43;3.67;;;;;;;0.63;100.00;101630.03;4994925;28;20458;-84
2022/04/20 00:12:55;;;;;;;6.93;3.83;;;;;;;0.59;100.00;101613.50;4966513;28;20116;-82
2022/04/20 00:15:21;;;;;;;6.50;3.17;;;;;;;0.58;100.00;101637.41;4968581;28;20479;-82
2022/04/20 00:17:47;;;;;;;3.17;1.95;;;;;;;0.36;100.00;101616.63;4983630;28;20530;-83
2022/04/20 00:20:13;;;;;;;3.67;1.98;;;;;;;0.30;100.00;101617.84;4976410;28;20564;-83
2022/04/20 00:22:38;;;;;;;5.00;2.00;;;;;;;0.21;100.00;101623.66;4966267;28;20420;-84
2022/04/20 00:25:04;;;;;;;4.40;1.50;;;;;;;0.05;100.00;101605.16;4992721;28;20491;-82
2022/04/20 00:27:35;;;;;;;3.30;1.67;;;;;;;0.13;100.00;101625.88;4981677;28;20514;-83
2022/04/20 00:30:03;;;;;;;2.75;1.50;;;;;;;0.19;100.00;101620.25;4993875;28;20061;-84
2022/04/20 00:32:29;;;;;;;3.47;1.52;;;;;;;0.27;100.00;101610.09;4993287;28;20049;-82
2022/04/20 00:34:55;;;;;;;3.17;1.85;;;;;;;0.39;100.00;101619.94;5011226;28;20057;-82
2022/04/20 00:37:21;;;;;;;3.53;1.67;;;;;;;0.37;100.00;101607.75;4963006;28;20076;-84
2022/04/20 00:39:46;;;;;;;2.85;1.73;;;;;;;0.31;100.00;101595.72;4992904;28;20042;-82
2022/04/20 00:42:12;;;;;;;3.75;1.73;;;;;;;0.31;100.00;101603.66;4964063;28;20574;-83
2022/04/20 00:44:40;;;;;;;2.63;1.60;;;;;;;0.24;100.00;101605.00;4991018;28;20061;-82
2022/04/20 00:47:06;;;;;;;6.30;2.35;;;;;;;0.20;100.00;101611.38;4995995;28;20018;-82
2022/04/20 00:49:33;;;;;;;3.85;1.92;;;;;;;0.12;100.00;101597.75;4960058;28;20096;-84
2022/04/20 00:52:01;;;;;;;3.33;1.45;;;;;;;0.11;100.00;101601.34;4995675;28;20073;-83
2022/04/20 00:54:26;;;;;;;3.42;1.90;;;;;;;0.09;100.00;101603.22;5004410;28;20033;-82
2022/04/20 00:56:52;;;;;;;4.13;1.83;;;;;;;0.01;100.00;101582.50;4991955;28;20124;-84
2022/04/20 00:59:21;;;;;;;4.70;1.73;;;;;;;0.04;100.00;101584.97;4984257;28;20034;-82
2022/04/20 01:01:48;;;;;;;2.30;1.42;;;;;;;0.08;100.00;101599.72;4971048;28;20052;-82
2022/04/20 01:04:13;;;;;;;2.78;1.50;;;;;;;0.04;100.00;101592.03;4974158;28;20540;-82
2022/04/20 01:06:39;;;;;;;2.50;1.40;;;;;;;-0.10;100.00;101593.69;4973967;28;20514;-83
2022/04/20 01:09:05;;;;;;;1.92;1.27;;;;;;;-0.26;100.00;101582.28;5004615;28;20045;-82
2022/04/20 01:11:30;;;;;;;2.92;1.65;;;;;;;-0.34;100.00;101587.13;4982623;28;20519;-83
2022/04/20 01:13:56;;;;;;;5.18;1.60;;;;;;;-0.29;100.00;101585.94;4986937;28;20030;-82
2022/04/20 01:16:22;;;;;;;4.45;1.50;;;;;;;-0.29;100.00;101595.63;4997707;28;20046;-83
2022/04/20 01:18:51;;;;;;;1.88;1.38;;;;;;;-0.42;100.00;101591.97;4983012;28;20080;-83
2022/04/20 01:21:17;;;;;;;5.80;1.80;;;;;;;-0.59;100.00;101569.97;4982014;28;20022;-82
2022/04/20 01:23:42;;;;;;;4.35;1.90;;;;;;;-0.59;100.00;101588.47;4983150;28;20502;-84
2022/04/20 01:26:09;;;;;;;6.22;2.40;;;;;;;-0.52;100.00;101589.00;5004026;28;20050;-83
2022/04/20 01:28:35;;;;;;;4.38;2.42;;;;;;;-0.32;100.00;101588.75;4991488;28;20118;-83
2022/04/20 01:31:01;;;;;;;5.03;1.55;;;;;;;-0.21;100.00;101585.50;4963978;28;20065;-84
2022/04/20 01:33:27;;;;;;;4.47;1.85;;;;;;;-0.28;100.00;101581.50;4982821;28;20041;-82
2022/04/20 01:35:52;;;;;;;2.20;1.38;;;;;;;-0.44;100.00;101568.28;4981398;28;20029;-83
2022/04/20 01:38:18;;;;;;;4.38;1.77;;;;;;;-0.48;100.00;101572.91;5003210;28;20033;-84
2022/04/20 01:40:43;;;;;;;4.03;1.60;;;;;;;-0.60;100.00;101563.00;4978588;28;20037;-83
2022/04/20 01:43:09;;;;;;;3.00;1.70;;;;;;;-0.61;100.00;101577.13;4987384;28;20542;-83
2022/04/20 01:45:34;;;;;;;2.70;1.55;;;;;;;-0.73;100.00;101572.53;5009457;28;20515;-82
2022/04/20 01:48:00;;;;;;;3.03;1.77;;;;;;;-0.79;100.00;101575.50;4969368;28;20415;-83
2022/04/20 01:50:26;;;;;;;3.03;1.55;;;;;;;-0.88;100.00;101553.91;4994780;28;20488;-83
2022/04/20 01:52:51;;;;;;;2.67;1.40;;;;;;;-0.91;100.00;101546.16;4988581;28;20040;-85
2022/04/20 01:55:17;;;;;;;6.22;1.65;;;;;;;-0.79;100.00;101552.59;4997535;28;20029;-83
2022/04/20 01:57:43;;;;;;;3.35;1.77;;;;;;;-0.67;100.00;101562.47;5012782;28;20081;-83
2022/04/20 02:00:10;;;;;;;6.57;2.00;;;;;;;-0.67;100.00;101564.25;4994640;28;20042;-84
2022/04/20 02:02:38;;;;;;;5.35;1.83;;;;;;;-0.77;100.00;101566.53;4999516;28;20336;-83
2022/04/20 02:05:05;;;;;;;0.52;0.52;;;;;;;-0.86;100.00;101550.34;4993912;28;20122;-83
2022/04/20 02:07:31;;;;;;;5.63;2.55;;;;;;;-0.71;100.00;101531.03;4962272;28;20486;-83
2022/04/20 02:09:56;;;;;;;3.00;2.13;;;;;;;-0.51;100.00;101549.25;4981110;28;20050;-83
2022/04/20 02:12:22;;;;;;;5.47;2.38;;;;;;;-0.43;100.00;101553.28;4985902;28;20029;-84
2022/04/20 02:14:47;;;;;;;6.43;2.25;;;;;;;-0.59;100.00;101546.19;4968122;28;20044;-84
2022/04/20 02:17:13;;;;;;;2.63;1.75;;;;;;;-0.64;100.00;101548.25;4996156;28;20123;-82
2022/04/20 02:19:38;;;;;;;6.85;1.95;;;;;;;-0.68;100.00;101538.78;4968051;28;20395;-84
2022/04/20 02:22:05;;;;;;;6.28;2.33;;;;;;;-0.52;100.00;101558.13;4984512;28;20025;-84
2022/04/20 02:24:31;;;;;;;2.97;2.10;;;;;;;-0.50;100.00;101545.72;5002650;28;20134;-83
2022/04/20 02:27:01;;;;;;;2.85;1.80;;;;;;;-0.47;100.00;101557.91;4987433;28;20049;-84
2022/04/20 02:29:27;;;;;;;3.20;1.67;;;;;;;-0.50;100.00;101553.63;4986379;28;20049;-83
2022/04/20 02:31:52;;;;;;;3.45;1.73;;;;;;;-0.69;100.00;101548.50;4993544;28;20038;-83
2022/04/20 02:34:18;;;;;;;4.57;1.88;;;;;;;-0.78;100.00;101543.72;4989051;28;20042;-85
2022/04/20 02:36:47;;;;;;;4.82;1.80;;;;;;;-0.80;100.00;101557.94;4998029;28;20034;-85
2022/04/20 02:39:12;;;;;;;6.00;2.30;;;;;;;-0.79;100.00;101557.03;4985252;28;20038;-85
2022/04/20 02:41:40;;;;;;;2.88;1.25;;;;;;;-0.63;100.00;101549.97;4966831;28;20037;-85
2022/04/20 02:44:05;;;;;;;0.85;0.85;;;;;;;-0.43;100.00;101542.72;4995897;28;20402;-82
2022/04/20 02:46:31;;;;;;;7.63;2.15;;;;;;;-0.36;100.00;101525.59;5000123;28;20056;-81
2022/04/20 02:48:56;;;;;;;1.63;1.30;;;;;;;-0.05;100.00;101551.97;5000325;28;20041;-83
2022/04/20 02:51:22;;;;;;;7.95;2.35;;;;;;;0.04;100.00;101544.44;4983315;28;20033;-83
2022/04/20 02:53:47;;;;;;;11.43;2.35;;;;;;;0.05;100.00;101533.78;4981999;28;20041;-83
2022/04/20 02:56:13;;;;;;;7.93;2.53;;;;;;;0.05;100.00;101546.16;4984014;28;20539;-83
2022/04/20 02:58:39;;;;;;;5.30;2.00;;;;;;;-0.03;100.00;101544.81;4982073;28;20687;-85
2022/04/20 03:01:06;;;;;;;10.38;3.42;;;;;;;-0.26;100.00;101524.97;4976980;28;20399;-83
2022/04/20 03:03:35;;;;;;;7.93;2.50;;;;;;;-0.25;100.00;101541.69;4996468;28;20072;-85
2022/04/20 03:06:00;;;;;;;11.88;3.35;;;;;;;-0.23;100.00;101540.66;5000145;28;20494;-83
2022/04/20 03:08:26;;;;;;;13.02;3.75;;;;;;;-0.19;100.00;101543.13;5003114;28;20034;-84
2022/04/20 03:10:51;;;;;;;10.55;3.63;;;;;;;-0.12;100.00;101537.41;5001495;28;20033;-83
2022/04/20 03:13:18;;;;;;;10.48;2.97;;;;;;;-0.04;100.00;101542.25;4979668;28;20046;-84
2022/04/20 03:15:45;;;;;;;6.32;2.72;;;;;;;-0.13;100.00;101514.56;4986213;28;20032;-83
2022/04/20 03:18:12;;;;;;;11.98;3.47;;;;;;;-0.02;100.00;101517.44;4987199;28;20046;-83
2022/04/20 03:20:38;;;;;;;13.70;3.85;;;;;;;0.03;100.00;101518.94;4990138;28;20048;-83
2022/04/20 03:23:05;;;;;;;8.57;2.88;;;;;;;0.15;100.00;101520.88;4987384;28;20030;-83
2022/04/20 03:25:31;;;;;;;12.63;3.58;;;;;;;0.29;100.00;101547.38;4967986;28;20179;-85
2022/04/20 03:27:57;;;;;;;8.57;3.22;;;;;;;0.22;100.00;101532.81;4968021;28;20034;-84
2022/04/20 03:30:22;;;;;;;9.07;3.35;;;;;;;0.02;100.00;101526.03;4983926;28;20038;-85
2022/04/20 03:32:48;;;;;;;11.30;2.67;;;;;;;-0.16;100.00;101520.03;4952497;28;20042;-84
2022/04/20 03:35:14;;;;;;;6.95;2.80;;;;;;;-0.31;100.00;101505.03;4968482;28;20038;-83
2022/04/20 03:37:40;;;;;;;4.85;2.30;;;;;;;-0.27;100.00;101530.34;4985197;28;20042;-84
2022/04/20 03:40:08;;;;;;;3.17;1.75;;;;;;;-0.54;100.00;101515.09;4989849;28;20033;-85
2022/04/20 03:42:34;;;;;;;4.43;1.98;;;;;;;-0.57;100.00;101531.13;4995381;28;20028;-83
2022/04/20 03:45:00;;;;;;;5.38;1.80;;;;;;;-0.72;100.00;101521.41;4983919;28;20034;-84
2022/04/20 03:47:26;;;;;;;5.55;1.77;;;;;;;-0.84;100.00;101519.44;4976403;28;20033;-84
2022/04/20 03:49:52;;;;;;;5.68;1.98;;;;;;;-0.93;100.00;101518.13;4992178;28;20038;-84
2022/04/20 03:52:17;;;;;;;9.45;2.70;;;;;;;-1.00;100.00;101532.63;4996623;28;20522;-84
2022/04/20 03:54:43;;;;;;;6.88;2.72;;;;;;;-1.07;100.00;101521.53;5011270;28;20026;-83
2022/04/20 03:57:10;;;;;;;1.15;1.00;;;;;;;-1.01;100.00;101533.53;5009610;28;20087;-83
2022/04/20 03:59:37;;;;;;;7.32;2.17;;;;;;;-0.98;100.00;101520.16;5002851;28;20113;-84
2022/04/20 04:02:05;;;;;;;3.92;2.10;;;;;;;-0.96;100.00;101528.88;5000977;28;20399;-84
2022/04/20 04:04:32;;;;;;;7.18;2.22;;;;;;;-1.07;100.00;101525.97;4964151;28;20109;-83
2022/04/20 04:06:58;;;;;;;6.80;1.95;;;;;;;-1.16;100.00;101517.59;4994600;28;20120;-84
2022/04/20 04:09:24;;;;;;;5.10;2.05;;;;;;;-1.37;100.00;101492.38;4985583;28;20535;-84
2022/04/20 04:11:50;;;;;;;4.28;2.40;;;;;;;-1.15;100.00;101515.81;4999712;28;20053;-85
2022/04/20 04:14:17;;;;;;;6.45;1.75;;;;;;;-1.25;100.00;101502.25;4983202;28;20088;-85
2022/04/20 04:16:43;;;;;;;7.28;2.00;;;;;;;-1.23;100.00;101510.94;4982998;28;20049;-85
2022/04/20 04:19:09;;;;;;;6.43;2.08;;;;;;;-1.37;100.00;101509.03;4981332;28;20483;-84
2022/04/20 04:21:41;;;;;;;3.42;1.98;;;;;;;-1.38;100.00;101512.59;4999371;28;20026;-84
2022/04/20 04:24:08;;;;;;;3.05;2.28;;;;;;;-1.42;100.00;101510.22;4988752;28;20507;-85
2022/04/20 04:26:35;;;;;;;6.50;2.40;;;;;;;-1.55;100.00;101502.09;4959678;28;20026;-85
2022/04/20 04:29:02;;;;;;;2.88;1.83;;;;;;;-1.61;100.00;101516.44;4984446;28;20046;-85
2022/04/20 04:31:28;;;;;;;4.88;2.80;;;;;;;-1.72;100.00;101496.81;4980533;28;20030;-86
2022/04/20 04:33:54;;;;;;;3.55;1.88;;;;;;;-1.63;100.00;101512.19;4984048;28;20045;-86
2022/04/20 04:36:19;;;;;;;5.93;2.30;;;;;;;-1.66;100.00;101512.34;4982362;28;20030;-85
2022/04/20 04:38:45;;;;;;;2.00;1.10;;;;;;;-1.72;100.00;101513.50;4983981;28;20127;-86
2022/04/20 04:41:11;;;;;;;6.22;2.38;;;;;;;-1.61;100.00;101505.03;4981847;28;20601;-85
2022/04/20 04:43:36;;;;;;;4.60;2.17;;;;;;;-1.49;100.00;101498.28;4981376;28;20069;-85
2022/04/20 04:48:48;;;;;;;9.35;2.63;;;;;;;-1.38;100.00;101485.34;4982468;28;20038;-83
2022/04/20 04:51:14;;;;;;;4.15;1.70;;;;;;;-1.29;100.00;101515.72;4997628;28;20292;-87
2022/04/20 04:53:40;;;;;;;5.55;1.70;;;;;;;-1.37;100.00;101497.63;4967064;28;20030;-87
2022/04/20 04:56:06;;;;;;;6.70;2.75;;;;;;;-1.39;100.00;101500.34;4998017;28;20467;-85
2022/04/20 04:58:31;;;;;;;4.25;2.13;;;;;;;-1.50;100.00;101488.66;4964020;28;20034;-86
2022/04/20 05:00:58;;;;;;;6.75;2.20;;;;;;;-1.58;100.00;101481.16;4981842;28;20030;-85
2022/04/20 05:03:27;;;;;;;5.53;1.73;;;;;;;-1.66;100.00;101481.53;4979164;28;245337;-85
2022/04/20 05:05:55;;;;;;;1.98;1.33;;;;;;;-1.79;100.00;101475.19;4945597;28;20045;-83
2022/04/20 05:08:21;;;;;;;6.03;2.47;;;;;;;-1.78;100.00;101498.81;4999273;28;20356;-85
2022/04/20 05:10:46;;;;;;;7.32;2.35;;;;;;;-1.84;100.00;101493.88;4977644;28;20687;-85
2022/04/20 05:13:12;;;;;;;7.70;2.97;;;;;;;-1.94;100.00;101487.38;4936644;28;20030;-86
2022/04/20 05:15:38;;;;;;;5.85;2.20;;;;;;;-1.92;100.00;101492.56;4981621;28;20034;-84
2022/04/20 05:18:04;;;;;;;5.95;2.20;;;;;;;-1.86;100.00;101492.25;4950568;28;20022;-84
2022/04/20 05:20:30;;;;;;;3.65;1.65;;;;;;;-1.83;100.00;101492.94;4996259;28;20038;-84
2022/04/20 05:22:55;;;;;;;5.97;2.05;;;;;;;-1.84;100.00;101478.06;5000018;28;20503;-85
2022/04/20 05:25:21;;;;;;;5.43;2.15;;;;;;;-1.73;100.00;101490.69;4983509;28;20026;-85
2022/04/20 05:27:47;;;;;;;5.75;2.20;;;;;;;-1.68;100.00;101486.03;4999916;28;20037;-86
2022/04/20 05:30:14;;;;;;;3.58;1.75;;;;;;;-1.63;100.00;101476.09;4980079;28;20038;-86
2022/04/20 05:32:41;;;;;;;4.10;1.98;;;;;;;-1.58;100.00;101475.88;4982165;28;20038;-85
2022/04/20 05:35:08;;;;;;;4.65;2.10;;;;;;;-1.56;100.00;101472.22;4950465;28;20049;-86
2022/04/20 05:43:01;;;;;;;4.80;1.95;;;;;;;-1.52;100.00;101464.16;5006544;28;20241;-83
2022/04/20 05:45:27;;;;;;;5.07;1.88;;;;;;;-1.49;100.00;101453.44;4981909;28;20703;-85
2022/04/20 05:47:53;;;;;;;9.60;2.25;;;;;;;-1.37;100.00;101444.88;5006257;28;20033;-84
2022/04/20 05:50:18;;;;;;;4.47;2.13;;;;;;;-1.17;100.00;101451.69;5004520;28;20034;-84
2022/04/20 05:52:44;;;;;;;5.63;1.80;;;;;;;-1.13;100.00;101458.53;5015537;28;20078;-83
2022/04/20 05:55:09;;;;;;;5.63;2.03;;;;;;;-1.19;100.00;101449.16;5000613;28;20026;-85
2022/04/20 05:57:36;;;;;;;4.28;2.28;;;;;;;-1.16;100.00;101458.69;5018107;28;20017;-84
2022/04/20 06:00:10;;;;;;;3.85;1.65;;;;;;;-1.08;100.00;101463.56;4969585;28;20026;-86
2022/04/20 06:02:36;;;;;;;4.30;1.50;;;;;;;-0.97;100.00;101459.38;4985713;28;20533;-88
2022/04/20 06:05:01;;;;;;;3.65;1.83;;;;;;;-0.92;100.00;101444.16;5008653;28;20112;-87
2022/04/20 06:07:27;;;;;;;5.32;1.75;;;;;;;-0.76;100.00;101452.06;4990321;28;20036;-84
2022/04/20 06:09:53;;;;;;;5.32;1.90;;;;;;;-0.89;100.00;101412.28;4999415;28;20073;-85
2022/04/20 06:12:21;;;;;;;4.00;2.13;;;;;;;-0.50;100.00;101457.69;4965784;28;20038;-86
2022/04/20 06:14:47;;;;;;;4.88;2.17;;;;;;;-0.22;100.00;101457.78;4978928;28;20038;-87
2022/04/20 06:17:13;;;;;;;9.00;4.22;;;;;;;-0.07;100.00;101440.19;4985111;28;20026;-86
2022/04/20 06:19:39;;;;;;;10.98;4.72;;;;;;;0.28;100.00;101446.94;4993852;28;20030;-88
2022/04/20 06:22:04;;;;;;;25.27;15.48;;;;;;;0.47;100.00;101451.97;4988272;28;20072;-88
2022/04/20 06:24:30;;;;;;;19.55;12.85;;;;;;;0.80;100.00;101447.25;4961099;28;20092;-84
2022/04/20 06:26:56;;;;;;;25.48;17.45;;;;;;;1.22;100.00;101442.81;4984202;28;20061;-84
2022/04/20 06:29:24;;;;;;;28.48;21.23;;;;;;;1.50;100.00;101451.63;4957080;28;20086;-86
2022/04/20 06:31:51;;;;;;;24.77;22.05;;;;;;;2.13;100.00;101444.78;4982084;28;20046;-87
2022/04/20 06:34:20;;;;;;;16.67;14.90;;;;;;;2.12;100.00;101437.78;4979185;28;20030;-86
2022/04/20 06:36:45;;;;;;;16.13;12.75;;;;;;;2.27;100.00;101435.88;4976575;28;20065;-84
2022/04/20 06:39:11;;;;;;;13.00;8.27;;;;;;;2.55;100.00;101434.81;4991219;28;20061;-85
2022/04/20 06:41:36;;;;;;;15.05;7.30;;;;;;;2.90;100.00;101434.97;4987581;28;20049;-86
2022/04/20 06:44:02;;;;;;;12.38;7.35;;;;;;;3.80;100.00;101426.66;5006999;28;20038;-85
2022/04/20 06:46:28;;;;;;;15.20;7.40;;;;;;;4.07;100.00;101424.53;4965607;28;20151;-85
2022/04/20 06:48:54;;;;;;;42.55;15.38;;;;;;;3.87;100.00;101434.06;4980833;28;20038;-85
2022/04/20 06:51:20;;;;;;;36.45;13.82;;;;;;;3.44;100.00;101423.09;4983141;28;20974;-85
2022/04/20 06:59:13;;;;;;;10.20;3.78;;;;;;;4.38;100.00;101409.72;4971590;28;20018;-84
2022/04/20 07:01:39;;;;;;;6.13;4.00;;;;;;;4.55;100.00;101427.06;4988385;28;20652;-85
2022/04/20 07:04:07;;;;;;;7.93;3.95;;;;;;;4.80;100.00;101420.63;4996628;28;20041;-85
2022/04/20 07:06:35;;;;;;;9.73;3.53;;;;;;;5.84;100.00;101397.03;4980872;28;20040;-85
2022/04/20 07:09:02;;;;;;;9.05;4.45;;;;;;;7.86;98.90;101413.94;4981668;28;20021;-85
2022/04/20 07:11:28;;;;;;;11.80;3.67;;;;;;;9.64;90.70;101415.59;4986824;28;20069;-83
2022/04/20 07:13:55;;;;;;;6.38;2.80;;;;;;;10.79;85.11;101402.97;4982317;28;20026;-84
2022/04/20 07:16:20;;;;;;;10.32;3.10;;;;;;;11.60;80.78;101396.97;4997442;28;20061;-84
2022/04/20 07:18:46;;;;;;;9.52;2.80;;;;;;;12.29;78.44;101407.41;4967642;28;20468;-85
2022/04/20 07:21:12;;;;;;;7.95;2.63;;;;;;;12.46;76.88;101394.72;4978059;28;20123;-85
2022/04/20 07:23:37;;;;;;;8.23;2.58;;;;;;;12.89;76.13;101404.19;4984065;28;20034;-85
2022/04/20 07:26:03;;;;;;;8.90;2.63;;;;;;;13.70;74.38;101410.16;4984003;28;20641;-84
2022/04/20 07:28:28;;;;;;;9.13;2.67;;;;;;;14.20;72.04;101407.88;4986818;28;20088;-84
2022/04/20 07:30:54;;;;;;;10.25;2.80;;;;;;;14.32;71.07;101406.41;4985793;28;20041;-85
2022/04/20 07:33:20;;;;;;;11.90;3.65;;;;;;;14.51;70.14;101405.88;4983748;28;20471;-85
2022/04/20 07:35:45;;;;;;;8.20;3.65;;;;;;;14.70;69.55;101409.06;4988429;28;20034;-84
2022/04/20 07:38:12;;;;;;;10.68;4.28;;;;;;;14.76;66.78;101402.06;4986892;28;20156;-85
2022/04/20 07:40:38;;;;;;;6.97;2.28;;;;;;;14.80;67.63;101377.16;5003789;28;20033;-83
2022/04/20 07:43:04;;;;;;;5.18;2.60;;;;;;;15.30;64.89;101399.84;4966260;28;20494;-84
2022/04/20 07:45:29;;;;;;;5.85;2.58;;;;;;;15.55;65.90;101388.63;5010221;28;20102;-83
2022/04/20 07:47:56;;;;;;;4.53;2.17;;;;;;;16.15;64.57;101395.44;4978181;28;20498;-82
2022/04/20 07:50:23;;;;;;;4.20;1.98;;;;;;;16.74;63.09;101385.16;4987665;28;20129;-84
2022/04/20 07:52:57;;;;;;;3.88;1.88;;;;;;;17.01;59.39;101378.84;4971771;28;20041;-83
2022/04/20 07:55:28;;;;;;;3.35;1.85;;;;;;;17.18;60.36;101386.66;4999911;28;20030;-82
2022/04/20 07:57:56;;;;;;;3.30;2.00;;;;;;;17.21;60.92;101372.66;4969188;28;20376;-82
2022/04/20 08:00:22;;;;;;;4.93;1.90;;;;;;;17.61;58.29;101380.88;5002178;28;20129;-84
2022/04/20 08:02:49;;;;;;;5.30;2.80;;;;;;;17.71;58.80;101367.72;4974324;28;20037;-83
2022/04/20 08:05:16;;;;;;;2.60;1.83;;;;;;;17.65;56.61;101354.94;5001664;28;20456;-84
2022/04/20 08:07:43;;;;;;;5.45;2.20;;;;;;;18.26;58.89;101360.19;4988204;28;20041;-84
2022/04/20 08:10:10;;;;;;;4.07;1.90;;;;;;;18.63;55.95;101374.16;4993703;28;20445;-83
2022/04/20 08:12:38;;;;;;;16.05;8.25;;;;;;;18.43;54.79;101360.56;4989507;28;20368;-83
2022/04/20 08:15:04;;;;;;;5.97;2.83;;;;;;;18.53;56.84;101360.97;4970930;28;20037;-84
2022/04/20 08:17:31;;;;;;;25.30;11.70;;;;;;;19.15;54.45;101339.56;4988147;28;20103;-84
2022/04/20 08:19:56;;;;;;;13.25;6.68;;;;;;;19.30;52.99;101353.72;5001786;28;20030;-84
2022/04/20 08:22:22;;;;;;;32.25;13.05;;;;;;;19.29;52.93;101308.44;5007194;28;20175;-84
2022/04/20 08:24:48;;;;;;;6.32;3.35;;;;;;;19.51;51.16;101343.53;4982132;28;20100;-86
2022/04/20 08:27:14;;;;;;;8.30;4.10;;;;;;;19.25;52.24;101355.44;5008089;28;20033;-84
2022/04/20 08:29:40;;;;;;;3.33;2.20;;;;;;;19.27;51.65;101345.16;4989744;28;20030;-82
2022/04/20 08:32:06;;;;;;;3.38;2.17;;;;;;;19.06;52.48;101349.06;4965928;28;20400;-83
2022/04/20 08:34:32;;;;;;;4.65;2.95;;;;;;;18.96;52.95;101346.78;5008689;28;20117;-85
2022/04/20 08:36:58;;;;;;;4.65;2.30;;;;;;;19.41;52.10;101326.81;4970234;28;20121;-83
2022/04/20 08:39:24;;;;;;;8.60;4.53;;;;;;;19.98;50.63;101349.47;5005146;28;20034;-83
2022/04/20 08:41:50;;;;;;;6.85;3.80;;;;;;;20.68;48.71;101348.34;4959458;28;20042;-82
2022/04/20 08:44:21;;;;;;;6.80;3.92;;;;;;;20.41;47.59;101340.44;4983814;28;20087;-81
2022/04/20 08:46:49;;;;;;;7.50;5.40;;;;;;;20.14;49.61;101326.25;4966223;28;20041;-83
2022/04/20 08:49:15;;;;;;;3.72;2.70;;;;;;;19.61;49.58;101322.06;4989198;28;20129;-80
2022/04/20 08:54:25;;;;;;;6.03;3.97;;;;;;;19.15;52.39;101328.66;4995853;28;20623;-79
2022/04/20 08:57:19;;;;;;;4.18;2.47;;;;;;;20.36;47.90;101321.16;4987093;28;20129;-84
2022/04/20 08:59:48;;;;;;;5.85;2.85;;;;;;;21.22;47.58;101327.44;4992150;28;20034;-79
2022/04/20 09:02:14;;;;;;;4.32;2.00;;;;;;;21.58;43.73;101325.69;5001159;28;20100;-79
2022/04/20 09:04:42;;;;;;;4.70;2.90;;;;;;;21.60;46.27;101320.81;4980290;28;20065;-83
2022/04/20 09:07:09;;;;;;;11.48;7.05;;;;;;;22.00;43.99;101318.22;5008363;28;20029;-82
2022/04/20 09:09:36;;;;;;;5.95;2.85;;;;;;;21.94;42.92;101298.09;4995750;28;20464;-85
2022/04/20 09:12:07;;;;;;;5.80;4.72;;;;;;;22.07;43.36;101296.16;4978064;28;20038;-80
2022/04/20 09:14:33;;;;;;;5.50;3.47;;;;;;;22.41;42.37;101305.44;5001616;28;20121;-80
2022/04/20 09:17:01;;;;;;;4.20;2.80;;;;;;;22.39;41.75;101291.19;4995869;28;20042;-81
2022/04/20 09:19:33;;;;;;;4.03;2.85;;;;;;;22.54;41.53;101302.44;4971264;28;20064;-83
2022/04/20 09:21:59;;;;;;;5.68;5.10;;;;;;;22.70;41.03;101294.53;4984692;28;20069;-84
2022/04/20 09:24:24;;;;;;;7.82;4.05;;;;;;;22.83;39.41;101286.84;4989687;28;20022;-79
2022/04/20 09:26:55;;;;;;;4.03;2.60;;;;;;;22.78;40.08;101295.00;4971374;28;20041;-80
2022/04/20 09:29:21;;;;;;;3.97;2.50;;;;;;;21.94;41.10;101303.56;5009780;28;20062;-80
2022/04/20 09:31:51;;;;;;;4.20;2.65;;;;;;;21.56;42.50;101267.59;4975563;28;20497;-79
2022/04/20 09:34:33;;;;;;;3.88;2.28;;;;;;;22.12;40.32;101293.53;4955992;28;20040;-79
2022/04/20 09:37:10;;;;;;;4.82;1.92;;;;;;;21.72;40.04;101275.09;4990639;28;20049;-79
2022/04/20 09:39:38;;;;;;;5.82;2.30;;;;;;;21.85;39.27;101265.84;4975023;28;20038;-79
2022/04/20 09:42:05;;;;;;;4.00;2.15;;;;;;;22.71;37.93;101271.53;4991306;28;20030;-78
2022/04/20 09:44:39;;;;;;;3.95;2.20;;;;;;;22.31;38.08;101266.91;4991849;28;20021;-79
2022/04/20 09:50:01;;;;;;;3.50;2.40;;;;;;;22.05;37.99;101254.53;4984980;28;20111;-82
2022/04/20 09:52:44;;;;;;;3.83;2.00;;;;;;;21.00;38.89;101248.69;4978207;28;20523;-78
2022/04/20 09:55:15;;;;;;;9.10;5.03;;;;;;;20.68;40.90;101244.53;4981582;28;20104;-81
2022/04/20 09:57:42;;;;;;;6.85;2.58;;;;;;;20.94;39.68;101254.25;4991820;28;20033;-79
2022/04/20 10:00:17;;;;;;;3.80;1.90;;;;;;;19.77;40.08;101250.59;4999175;28;20463;-81
2022/04/20 10:02:53;;;;;;;5.10;1.90;;;;;;;19.95;39.64;101218.91;5011027;28;20035;-82
2022/04/20 10:05:23;;;;;;;3.45;2.60;;;;;;;19.95;41.06;101247.06;4989513;28;20041;-81
2022/04/20 10:07:51;;;;;;;5.97;2.53;;;;;;;19.35;41.06;101211.28;5006142;28;20038;-84
2022/04/20 10:10:17;;;;;;;5.43;2.00;;;;;;;19.46;40.98;101231.53;4960193;28;20032;-81
2022/04/20 10:12:43;;;;;;;8.73;1.98;;;;;;;19.21;42.19;101221.47;4978821;28;20031;-83
2022/04/20 10:17:56;;;;;;;3.53;1.80;;;;;;;17.90;42.57;101227.34;4990681;28;20042;-81
2022/04/20 10:20:25;;;;;;;2.53;1.55;;;;;;;18.12;41.96;101236.06;4960462;28;20041;-81
2022/04/20 10:25:26;;;;;;;3.90;2.10;;;;;;;18.00;42.63;101230.44;5485893;22;20055;-81
2022/04/20 10:27:57;;;;;;;2.83;1.73;;;;;;;18.05;43.10;101224.34;4919232;28;20383;-81
2022/04/20 10:31:01;;;;;;;2.08;1.58;;;;;;;19.28;41.72;101226.84;4946378;28;20552;-79
2022/04/20 10:33:31;;;;;;;2.60;1.52;;;;;;;19.63;39.40;101210.78;4940893;28;20043;-83
2022/04/20 10:36:11;;;;;;;3.42;2.45;;;;;;;19.60;39.94;101194.06;4952811;28;20035;-81
2022/04/20 11:51:36;;;;;;;2.00;1.80;;;;;;;27.75;25.47;101107.22;4668137;26;20055;-78
2022/04/20 11:54:02;;;;;;;2.65;2.00;;;;;;;26.70;26.92;101092.25;4931695;28;20041;-77
2022/04/20 11:56:38;;;;;;;4.22;3.15;;;;;;;26.41;27.73;101091.06;4903790;29;20392;-78
2022/04/20 11:59:09;;;;;;;3.83;2.45;;;;;;;26.83;27.25;101090.03;4915997;28;20494;-80
2022/04/20 12:01:37;;;;;;;5.25;2.03;;;;;;;26.80;26.65;101093.34;4918946;29;20106;-79
2022/04/20 12:04:15;;;;;;;5.97;2.63;;;;;;;25.81;28.55;101085.94;4926067;29;20091;-79
2022/04/20 12:06:52;;;;;;;4.97;3.30;;;;;;;24.88;28.29;101083.75;4909536;29;20027;-85
2022/04/20 12:09:22;;;;;;;3.85;2.13;;;;;;;23.83;30.37;101077.75;4921572;28;20038;-88
2022/04/20 12:11:59;;;;;;;4.88;3.65;;;;;;;23.46;32.26;101057.22;4927766;28;20042;-90
2022/04/20 12:14:35;;;;;;;5.35;2.83;;;;;;;23.94;32.01;101076.75;4920152;28;20088;-90
2022/04/20 12:17:09;;;;;;;4.10;3.38;;;;;;;24.23;30.93;101074.59;4926419;28;20034;-86
2022/04/20 12:19:36;;;;;;;4.07;2.40;;;;;;;24.07;30.52;101073.59;4919098;29;20027;-91
2022/04/20 12:22:30;;;;;;;3.10;2.08;;;;;;;22.98;31.73;101071.63;4932496;28;20031;-89
2022/04/20 12:25:07;;;;;;;3.00;1.67;;;;;;;22.48;31.97;101061.44;4930576;28;20046;-92
2022/04/20 12:27:57;;;;;;;1.33;1.23;;;;;;;21.77;32.45;101039.84;4925688;28;20062;-90
2022/04/20 12:30:38;;;;;;;2.22;1.70;;;;;;;21.03;33.57;101036.88;4907644;28;20130;-87
2022/04/20 12:33:06;;;;;;;3.13;1.60;;;;;;;21.03;34.77;101045.06;4918488;28;20047;-87
2022/04/20 12:35:32;;;;;;;10.70;7.13;;;;;;;21.57;34.78;101047.66;4928073;28;20126;-88
2022/04/20 12:37:57;;;;;;;3.70;2.05;;;;;;;22.39;33.93;101052.81;4946291;28;20058;-88
2022/04/20 12:40:25;;;;;;;4.57;2.25;;;;;;;21.84;33.97;101050.66;4929540;28;20091;-91
2022/04/20 12:43:13;;;;;;;3.72;2.30;;;;;;;22.69;33.10;101046.19;4931221;29;20042;-91
2022/04/20 12:45:38;;;;;;;2.28;1.70;;;;;;;22.16;32.85;101031.81;4918972;29;20107;-92
2022/04/20 12:48:37;;;;;;;4.20;2.42;;;;;;;21.73;33.95;101038.69;4936942;29;20101;-91
2022/04/20 12:51:02;;;;;;;4.40;2.15;;;;;;;21.38;34.89;101031.41;4938846;29;20027;-88
2022/04/20 12:53:39;;;;;;;2.97;2.17;;;;;;;21.43;35.27;101023.28;4903893;29;20043;-89
2022/04/20 13:02:04;;;;;;;4.70;2.28;;;;;;;22.43;33.89;101012.03;4925567;29;20137;-88
2022/04/20 13:04:30;;;;;;;3.28;1.80;;;;;;;22.04;34.49;101009.13;4913333;29;20422;-89